createdAt,value
2017-09-16T00:00:54.984Z,-4.17
2017-09-16T00:01:50.092Z,-4.17
2017-09-16T00:02:49.978Z,-4.17
2017-09-16T00:03:50.051Z,-4.17
2017-09-16T00:04:56.275Z,-4.17
2017-09-16T00:05:51.048Z,-4.17
2017-09-16T00:06:51.102Z,-4.17
2017-09-16T00:07:46.253Z,-4.17
2017-09-16T00:08:46.191Z,-4.17
2017-09-16T00:09:46.311Z,-4.17
2017-09-16T00:10:52.208Z,-4.17
2017-09-16T00:11:47.242Z,-4.17
2017-09-16T00:12:47.241Z,-4.17
2017-09-16T00:13:42.385Z,-4.17
2017-09-16T00:14:37.352Z,-4.17
2017-09-16T00:15:37.421Z,-4.17
2017-09-16T00:16:32.453Z,-4.17
2017-09-16T00:17:27.475Z,-4.17
2017-09-16T00:18:28.485Z,-4.17
2017-09-16T00:19:28.521Z,-4.17
2017-09-16T00:20:28.514Z,-4.17
2017-09-16T00:21:28.546Z,-4.17
2017-09-16T00:22:29.616Z,-4.17
2017-09-16T00:23:30.583Z,-4.17
2017-09-16T00:24:24.952Z,-4.17
2017-09-16T00:25:24.591Z,-4.17
2017-09-16T00:26:19.670Z,-4.17
2017-09-16T00:27:14.739Z,-4.17
2017-09-16T00:28:14.704Z,-4.17
2017-09-16T00:29:09.684Z,-4.17
2017-09-16T00:30:04.827Z,-4.17
2017-09-16T00:31:04.847Z,-4.17
2017-09-16T00:31:59.853Z,-4.17
2017-09-16T00:32:54.921Z,-4.17
2017-09-16T00:33:56.121Z,-4.17
2017-09-16T00:34:55.976Z,-4.17
2017-09-16T00:35:55.932Z,-4.17
2017-09-16T00:36:55.931Z,-4.17
2017-09-16T00:37:57.375Z,-4.17
2017-09-16T00:38:58.079Z,-4.17
2017-09-16T00:39:58.083Z,-4.17
2017-09-16T00:41:05.093Z,-4.17
2017-09-16T00:42:05.151Z,-4.17
2017-09-16T00:43:05.058Z,-4.17
2017-09-16T00:43:59.557Z,-4.17
2017-09-16T00:44:59.226Z,-4.17
2017-09-16T00:45:54.245Z,-4.17
2017-09-16T00:46:49.281Z,-4.17
2017-09-16T00:47:50.257Z,-4.17
2017-09-16T00:48:50.239Z,-4.17
2017-09-16T00:49:50.566Z,-4.17
2017-09-16T00:50:45.351Z,-4.17
2017-09-16T00:51:39.415Z,-4.17
2017-09-16T00:52:39.458Z,-4.17
2017-09-16T00:53:34.486Z,-4.17
2017-09-16T00:54:34.508Z,-4.17
2017-09-16T00:55:28.578Z,-4.17
2017-09-16T00:56:28.510Z,-4.17
2017-09-16T00:57:23.567Z,-4.17
2017-09-16T00:58:18.640Z,-4.17
2017-09-16T00:59:18.938Z,-4.17
2017-09-16T01:00:13.651Z,-4.17
2017-09-16T01:01:08.751Z,-4.17
2017-09-16T01:02:09.689Z,-4.17
2017-09-16T01:03:09.714Z,-4.17
2017-09-16T01:04:09.778Z,-4.17
2017-09-16T01:05:09.746Z,-4.17
2017-09-16T01:05:58.903Z,-4.17
2017-09-16T01:06:46.854Z,-4.17
2017-09-16T01:07:34.854Z,-4.17
2017-09-16T01:08:28.956Z,-4.17
2017-09-16T01:09:22.972Z,-4.17
2017-09-16T01:10:16.975Z,-4.17
2017-09-16T01:11:12.017Z,-4.17
2017-09-16T01:12:06.066Z,-4.17
2017-09-16T01:13:00.037Z,-4.17
2017-09-16T01:13:54.066Z,-4.17
2017-09-16T01:14:42.166Z,-4.17
2017-09-16T01:15:36.178Z,-4.17
2017-09-16T01:16:24.350Z,-4.17
2017-09-16T01:17:18.259Z,-4.17
2017-09-16T01:18:07.270Z,-4.17
2017-09-16T01:18:55.339Z,-4.17
2017-09-16T01:19:44.359Z,-4.17
2017-09-16T01:20:32.404Z,-4.17
2017-09-16T01:21:20.379Z,-4.17
2017-09-16T01:22:09.430Z,-4.17
2017-09-16T01:22:57.574Z,-4.17
2017-09-16T01:23:46.479Z,-4.17
2017-09-16T01:24:35.608Z,-4.17
2017-09-16T01:25:24.632Z,-4.17
2017-09-16T01:26:18.675Z,-4.17
2017-09-16T01:27:07.686Z,-4.17
2017-09-16T01:27:55.754Z,-4.17
2017-09-16T01:28:43.788Z,-4.17
2017-09-16T01:29:32.810Z,-4.17
2017-09-16T01:30:21.904Z,-4.17
2017-09-16T01:31:21.924Z,-4.17
2017-09-16T01:32:16.899Z,-4.17
2017-09-16T01:33:12.131Z,-4.17
2017-09-16T01:34:13.186Z,-4.17
2017-09-16T01:35:13.068Z,-4.17
2017-09-16T01:36:08.218Z,-4.17
2017-09-16T01:37:08.133Z,-4.17
2017-09-16T01:38:08.150Z,-4.17
2017-09-16T01:39:14.202Z,-4.17
2017-09-16T01:40:09.158Z,-4.17
2017-09-16T01:41:09.123Z,-4.17
2017-09-16T01:42:04.147Z,-4.17
2017-09-16T01:42:59.172Z,-4.17
2017-09-16T01:44:00.386Z,-4.17
2017-09-16T01:45:00.292Z,-4.17
2017-09-16T01:46:00.293Z,-4.17
2017-09-16T01:46:55.320Z,-4.17
2017-09-16T01:47:49.344Z,-4.17
2017-09-16T01:48:49.366Z,-4.17
2017-09-16T01:49:44.369Z,-4.17
2017-09-16T01:50:44.492Z,-4.17
2017-09-16T01:51:44.534Z,-4.17
2017-09-16T01:52:44.497Z,-4.17
2017-09-16T01:53:38.508Z,-4.17
2017-09-16T01:54:33.486Z,-4.17
2017-09-16T01:55:27.606Z,-4.17
2017-09-16T01:56:15.630Z,-4.17
2017-09-16T01:57:10.689Z,-4.17
2017-09-16T01:58:04.653Z,-4.17
2017-09-16T01:58:58.688Z,-4.17
2017-09-16T01:59:46.808Z,-4.17
2017-09-16T02:00:41.974Z,-4.18
2017-09-16T02:01:36.827Z,-4.17
2017-09-16T02:02:31.891Z,-4.18
2017-09-16T02:03:25.944Z,-4.17
2017-09-16T02:04:13.870Z,-4.17
2017-09-16T02:05:07.916Z,-4.17
2017-09-16T02:05:56.351Z,-4.17
2017-09-16T02:06:45.017Z,-4.17
2017-09-16T02:07:33.109Z,-4.17
2017-09-16T02:08:21.063Z,-4.17
2017-09-16T02:09:10.359Z,-4.17
2017-09-16T02:10:05.277Z,-4.17
2017-09-16T02:10:59.222Z,-4.17
2017-09-16T02:11:59.368Z,-4.17
2017-09-16T02:12:54.257Z,-4.17
2017-09-16T02:14:00.326Z,-4.17
2017-09-16T02:14:55.311Z,-4.18
2017-09-16T02:15:49.425Z,-4.17
2017-09-16T02:16:49.317Z,-4.17
2017-09-16T02:17:49.527Z,-4.17
2017-09-16T02:18:43.370Z,-4.17
2017-09-16T02:19:43.484Z,-4.17
2017-09-16T02:20:37.453Z,-4.17
2017-09-16T02:21:31.529Z,-4.17
2017-09-16T02:22:25.487Z,-4.17
2017-09-16T02:23:19.589Z,-4.17
2017-09-16T02:24:13.606Z,-4.17
2017-09-16T02:25:07.602Z,-4.17
2017-09-16T02:25:56.698Z,-4.17
2017-09-16T02:26:51.694Z,-4.17
2017-09-16T02:27:46.938Z,-4.17
2017-09-16T02:28:47.769Z,-4.17
2017-09-16T02:29:47.765Z,-4.17
2017-09-16T02:30:47.842Z,-4.17
2017-09-16T02:31:36.922Z,-4.17
2017-09-16T02:32:25.868Z,-4.17
2017-09-16T02:33:14.884Z,-4.17
2017-09-16T02:34:02.991Z,-4.17
2017-09-16T02:34:52.105Z,-4.17
2017-09-16T02:35:40.029Z,-4.17
2017-09-16T02:36:28.179Z,-4.17
2017-09-16T02:37:22.085Z,-4.17
2017-09-16T02:38:16.126Z,-4.17
2017-09-16T02:39:04.193Z,-4.17
2017-09-16T02:39:53.243Z,-4.17
2017-09-16T02:40:41.221Z,-4.17
2017-09-16T02:41:29.278Z,-4.17
2017-09-16T02:42:23.318Z,-4.17
2017-09-16T02:43:23.318Z,-4.17
2017-09-16T02:44:23.411Z,-4.17
2017-09-16T02:45:23.400Z,-4.17
2017-09-16T02:46:29.512Z,-4.17
2017-09-16T02:47:24.541Z,-4.17
2017-09-16T02:48:24.512Z,-4.17
2017-09-16T02:49:18.475Z,-4.17
2017-09-16T02:50:18.914Z,-4.17
2017-09-16T02:51:13.580Z,-4.17
2017-09-16T02:52:08.607Z,-4.17
2017-09-16T02:53:08.620Z,-4.17
2017-09-16T02:54:03.729Z,-4.18
2017-09-16T02:54:58.736Z,-4.17
2017-09-16T02:55:59.727Z,-4.17
2017-09-16T02:56:59.705Z,-4.18
2017-09-16T02:57:55.130Z,-4.18
2017-09-16T02:58:54.920Z,-4.18
2017-09-16T02:59:48.797Z,-4.17
2017-09-16T03:00:48.888Z,-4.17
2017-09-16T03:01:43.831Z,-4.17
2017-09-16T03:02:39.084Z,-4.17
2017-09-16T03:03:39.085Z,-4.17
2017-09-16T03:04:33.959Z,-4.17
2017-09-16T03:05:28.992Z,-4.17
2017-09-16T03:06:30.016Z,-4.17
2017-09-16T03:07:30.047Z,-4.17
2017-09-16T03:08:25.104Z,-4.17
2017-09-16T03:09:20.091Z,-4.17
2017-09-16T03:10:20.074Z,-4.17
2017-09-16T03:11:15.221Z,-4.17
2017-09-16T03:12:15.172Z,-4.17
2017-09-16T03:13:15.289Z,-4.17
2017-09-16T03:14:04.248Z,-4.17
2017-09-16T03:15:05.251Z,-4.17
2017-09-16T03:15:59.291Z,-4.17
2017-09-16T03:16:59.325Z,-4.17
2017-09-16T03:17:53.716Z,-4.17
2017-09-16T03:18:47.462Z,-4.17
2017-09-16T03:19:41.482Z,-4.17
2017-09-16T03:20:35.483Z,-4.17
2017-09-16T03:21:29.538Z,-4.17
2017-09-16T03:22:18.587Z,-4.17
2017-09-16T03:23:13.570Z,-4.17
2017-09-16T03:24:02.811Z,-4.17
2017-09-16T03:24:51.568Z,-4.17
2017-09-16T03:25:51.791Z,-4.17
2017-09-16T03:26:39.700Z,-4.17
2017-09-16T03:27:39.694Z,-4.17
2017-09-16T03:28:33.780Z,-4.16
2017-09-16T03:29:22.750Z,-4.17
2017-09-16T03:30:16.928Z,-4.16
2017-09-16T03:31:05.875Z,-4.16
2017-09-16T03:32:00.879Z,-4.16
2017-09-16T03:32:54.914Z,-4.16
2017-09-16T03:33:50.173Z,-4.16
2017-09-16T03:34:50.046Z,-4.16
2017-09-16T03:35:50.029Z,-4.16
2017-09-16T03:36:44.077Z,-4.16
2017-09-16T03:37:44.092Z,-4.16
2017-09-16T03:38:38.210Z,-4.16
2017-09-16T03:39:38.063Z,-4.16
2017-09-16T03:40:32.195Z,-4.16
2017-09-16T03:41:27.200Z,-4.16
2017-09-16T03:42:16.274Z,-4.16
2017-09-16T03:43:10.303Z,-4.16
2017-09-16T03:44:05.385Z,-4.16
2017-09-16T03:45:00.358Z,-4.16
2017-09-16T03:45:49.373Z,-4.16
2017-09-16T03:46:43.371Z,-4.16
2017-09-16T03:47:37.392Z,-4.16
2017-09-16T03:48:37.437Z,-4.16
2017-09-16T03:49:32.627Z,-4.16
2017-09-16T03:50:27.481Z,-4.16
2017-09-16T03:51:27.577Z,-4.16
2017-09-16T03:52:22.600Z,-4.16
2017-09-16T03:53:17.651Z,-4.16
2017-09-16T03:54:05.646Z,-4.16
2017-09-16T03:54:53.693Z,-4.16
2017-09-16T03:55:54.705Z,-4.16
2017-09-16T03:56:55.826Z,-4.16
2017-09-16T03:57:49.787Z,-4.16
2017-09-16T03:58:44.036Z,-4.16
2017-09-16T03:59:38.826Z,-4.16
2017-09-16T04:00:32.907Z,-4.16
2017-09-16T04:01:21.913Z,-4.16
2017-09-16T04:02:17.014Z,-4.16
2017-09-16T04:03:10.998Z,-4.16
2017-09-16T04:03:59.016Z,-4.16
2017-09-16T04:04:54.056Z,-4.16
2017-09-16T04:05:48.074Z,-4.16
2017-09-16T04:06:42.066Z,-4.16
2017-09-16T04:07:30.314Z,-4.16
2017-09-16T04:08:19.185Z,-4.16
2017-09-16T04:09:13.229Z,-4.16
2017-09-16T04:10:02.266Z,-4.16
2017-09-16T04:10:51.286Z,-4.16
2017-09-16T04:11:45.325Z,-4.16
2017-09-16T04:12:45.399Z,-4.16
2017-09-16T04:13:34.333Z,-4.16
2017-09-16T04:14:23.408Z,-4.16
2017-09-16T04:15:12.509Z,-4.16
2017-09-16T04:16:00.488Z,-4.16
2017-09-16T04:16:54.621Z,-4.16
2017-09-16T04:17:43.625Z,-4.16
2017-09-16T04:18:43.593Z,-4.16
2017-09-16T04:19:43.617Z,-4.16
2017-09-16T04:20:32.674Z,-4.16
2017-09-16T04:21:26.748Z,-4.16
2017-09-16T04:22:26.718Z,-4.16
2017-09-16T04:23:20.757Z,-4.16
2017-09-16T04:24:15.206Z,-4.16
2017-09-16T04:25:08.830Z,-4.16
2017-09-16T04:26:03.873Z,-4.16
2017-09-16T04:27:03.843Z,-4.16
2017-09-16T04:28:03.906Z,-4.16
2017-09-16T04:28:57.949Z,-4.16
2017-09-16T04:29:58.070Z,-4.16
2017-09-16T04:30:52.012Z,-4.16
2017-09-16T04:31:58.099Z,-4.16
2017-09-16T04:32:46.244Z,-4.16
2017-09-16T04:33:35.095Z,-4.16
2017-09-16T04:34:24.259Z,-4.16
2017-09-16T04:35:24.188Z,-4.16
2017-09-16T04:36:18.235Z,-4.16
2017-09-16T04:37:12.216Z,-4.16
2017-09-16T04:38:00.331Z,-4.16
2017-09-16T04:38:48.450Z,-4.16
2017-09-16T04:39:49.416Z,-4.16
2017-09-16T04:40:49.389Z,-4.16
2017-09-16T04:41:44.421Z,-4.16
2017-09-16T04:42:44.503Z,-4.16
2017-09-16T04:43:38.496Z,-4.16
2017-09-16T04:44:32.501Z,-4.16
2017-09-16T04:45:20.541Z,-4.16
2017-09-16T04:46:09.608Z,-4.16
2017-09-16T04:47:04.696Z,-4.16
2017-09-16T04:47:58.678Z,-4.16
2017-09-16T04:48:58.684Z,-4.16
2017-09-16T04:49:53.698Z,-4.16
2017-09-16T04:50:53.750Z,-4.16
2017-09-16T04:51:53.874Z,-4.16
2017-09-16T04:52:53.810Z,-4.16
2017-09-16T04:53:48.225Z,-4.16
2017-09-16T04:54:47.910Z,-4.16
2017-09-16T04:55:42.946Z,-4.16
2017-09-16T04:56:42.860Z,-4.16
2017-09-16T04:57:43.030Z,-4.16
2017-09-16T04:58:42.970Z,-4.16
2017-09-16T04:59:37.027Z,-4.16
2017-09-16T05:00:37.015Z,-4.16
2017-09-16T05:01:32.119Z,-4.16
2017-09-16T05:02:32.165Z,-4.16
2017-09-16T05:03:26.298Z,-4.16
2017-09-16T05:04:26.245Z,-4.16
2017-09-16T05:05:20.261Z,-4.16
2017-09-16T05:06:21.158Z,-4.16
2017-09-16T05:07:22.299Z,-4.16
2017-09-16T05:08:16.308Z,-4.16
2017-09-16T05:09:04.251Z,-4.16
2017-09-16T05:09:53.353Z,-4.16
2017-09-16T05:10:41.455Z,-4.16
2017-09-16T05:11:29.420Z,-4.16
2017-09-16T05:12:23.484Z,-4.16
2017-09-16T05:13:12.532Z,-4.16
2017-09-16T05:14:06.706Z,-4.16
2017-09-16T05:15:01.539Z,-4.16
2017-09-16T05:15:56.626Z,-4.16
2017-09-16T05:16:51.771Z,-4.16
2017-09-16T05:17:45.672Z,-4.16
2017-09-16T05:18:39.651Z,-4.16
2017-09-16T05:19:27.806Z,-4.16
2017-09-16T05:20:16.837Z,-4.16
2017-09-16T05:21:05.811Z,-4.16
2017-09-16T05:22:05.897Z,-4.16
2017-09-16T05:22:54.892Z,-4.16
2017-09-16T05:23:50.445Z,-4.16
2017-09-16T05:24:50.013Z,-4.16
2017-09-16T05:25:44.007Z,-4.16
2017-09-16T05:26:38.096Z,-4.16
2017-09-16T05:27:26.198Z,-4.16
2017-09-16T05:28:20.138Z,-4.16
2017-09-16T05:29:09.180Z,-4.16
2017-09-16T05:30:04.488Z,-4.16
2017-09-16T05:30:58.229Z,-4.16
2017-09-16T05:31:58.267Z,-4.16
2017-09-16T05:32:53.303Z,-4.16
2017-09-16T05:33:53.307Z,-4.16
2017-09-16T05:34:48.297Z,-4.16
2017-09-16T05:35:43.529Z,-4.16
2017-09-16T05:36:31.469Z,-4.16
2017-09-16T05:37:19.502Z,-4.16
2017-09-16T05:38:07.514Z,-4.16
2017-09-16T05:38:56.560Z,-4.16
2017-09-16T05:39:50.614Z,-4.16
2017-09-16T05:40:50.693Z,-4.16
2017-09-16T05:41:45.623Z,-4.16
2017-09-16T05:42:40.714Z,-4.16
2017-09-16T05:43:29.710Z,-4.16
2017-09-16T05:44:23.806Z,-4.15
2017-09-16T05:45:18.794Z,-4.15
2017-09-16T05:46:06.862Z,-4.15
2017-09-16T05:47:01.794Z,-4.15
2017-09-16T05:48:02.879Z,-4.15
2017-09-16T05:49:02.945Z,-4.15
2017-09-16T05:49:56.979Z,-4.15
2017-09-16T05:50:45.996Z,-4.15
2017-09-16T05:51:40.050Z,-4.15
2017-09-16T05:52:28.070Z,-4.15
2017-09-16T05:53:22.154Z,-4.15
2017-09-16T05:54:23.137Z,-4.15
2017-09-16T05:55:24.137Z,-4.15
2017-09-16T05:56:24.206Z,-4.15
2017-09-16T05:57:19.203Z,-4.15
2017-09-16T05:58:13.308Z,-4.15
2017-09-16T05:59:07.337Z,-4.15
2017-09-16T05:59:55.350Z,-4.15
2017-09-16T06:00:43.453Z,-4.15
2017-09-16T06:01:38.366Z,-4.15
2017-09-16T06:02:32.491Z,-4.15
2017-09-16T06:03:38.479Z,-4.15
2017-09-16T06:04:32.573Z,-4.15
2017-09-16T06:05:33.494Z,-4.15
2017-09-16T06:06:22.567Z,-4.15
2017-09-16T06:07:10.605Z,-4.15
2017-09-16T06:08:05.664Z,-4.15
2017-09-16T06:09:05.712Z,-4.15
2017-09-16T06:09:59.711Z,-4.15
2017-09-16T06:10:48.736Z,-4.15
2017-09-16T06:11:42.841Z,-4.15
2017-09-16T06:12:37.799Z,-4.15
2017-09-16T06:13:37.848Z,-4.15
2017-09-16T06:14:32.033Z,-4.15
2017-09-16T06:15:25.916Z,-4.15
2017-09-16T06:16:25.901Z,-4.15
2017-09-16T06:17:26.986Z,-4.15
2017-09-16T06:18:22.006Z,-4.15
2017-09-16T06:19:11.145Z,-4.15
2017-09-16T06:20:11.090Z,-4.15
2017-09-16T06:21:11.118Z,-4.15
2017-09-16T06:22:06.120Z,-4.15
2017-09-16T06:23:06.196Z,-4.15
2017-09-16T06:24:00.232Z,-4.15
2017-09-16T06:25:01.292Z,-4.15
2017-09-16T06:26:02.280Z,-4.15
2017-09-16T06:27:02.306Z,-4.15
2017-09-16T06:27:57.372Z,-4.15
2017-09-16T06:28:45.359Z,-4.15
2017-09-16T06:29:45.392Z,-4.15
2017-09-16T06:30:40.471Z,-4.15
2017-09-16T06:31:40.550Z,-4.15
2017-09-16T06:32:40.431Z,-4.15
2017-09-16T06:33:34.565Z,-4.15
2017-09-16T06:34:29.557Z,-4.15
2017-09-16T06:35:23.567Z,-4.15
2017-09-16T06:36:18.775Z,-4.15
2017-09-16T06:37:12.745Z,-4.15
2017-09-16T06:38:01.680Z,-4.15
2017-09-16T06:38:55.774Z,-4.15
2017-09-16T06:39:55.820Z,-4.15
2017-09-16T06:40:55.773Z,-4.15
2017-09-16T06:41:50.228Z,-4.15
2017-09-16T06:42:43.936Z,-4.15
2017-09-16T06:43:37.932Z,-4.15
2017-09-16T06:44:27.037Z,-4.15
2017-09-16T06:45:22.086Z,-4.15
2017-09-16T06:46:17.020Z,-4.15
2017-09-16T06:47:11.061Z,-4.15
2017-09-16T06:48:00.109Z,-4.15
2017-09-16T06:49:00.333Z,-4.15
2017-09-16T06:49:55.208Z,-4.15
2017-09-16T06:50:49.217Z,-4.15
2017-09-16T06:51:43.307Z,-4.15
2017-09-16T06:52:37.340Z,-4.15
2017-09-16T06:53:32.582Z,-4.15
2017-09-16T06:54:26.445Z,-4.15
2017-09-16T06:55:21.455Z,-4.15
2017-09-16T06:56:16.427Z,-4.15
2017-09-16T06:57:16.469Z,-4.15
2017-09-16T06:58:10.607Z,-4.15
2017-09-16T06:59:04.510Z,-4.15
2017-09-16T06:59:53.591Z,-4.15
2017-09-16T07:00:41.631Z,-4.15
2017-09-16T07:01:29.665Z,-4.14
2017-09-16T07:02:29.729Z,-4.14
2017-09-16T07:03:18.749Z,-4.13
2017-09-16T07:04:18.762Z,-4.13
2017-09-16T07:05:07.828Z,-4.13
2017-09-16T07:06:02.940Z,-4.12
2017-09-16T07:06:58.006Z,-4.12
2017-09-16T07:07:46.973Z,-4.12
2017-09-16T07:08:40.993Z,-4.13
2017-09-16T07:09:36.065Z,-4.13
2017-09-16T07:10:31.129Z,-4.13
2017-09-16T07:11:26.386Z,-4.13
2017-09-16T07:12:20.165Z,-4.13
2017-09-16T07:13:21.288Z,-4.12
2017-09-16T07:14:10.242Z,-4.12
2017-09-16T07:14:58.241Z,-4.12
2017-09-16T07:15:46.306Z,-4.11
2017-09-16T07:16:47.583Z,-4.11
2017-09-16T07:17:41.625Z,-4.12
2017-09-16T07:18:35.378Z,-4.12
2017-09-16T07:19:30.489Z,-4.12
2017-09-16T07:20:18.525Z,-4.12
2017-09-16T07:21:13.842Z,-4.12
2017-09-16T07:22:08.911Z,-4.12
2017-09-16T07:23:02.630Z,-4.12
2017-09-16T07:23:57.713Z,-4.12
2017-09-16T07:24:51.762Z,-4.12
2017-09-16T07:25:46.082Z,-4.12
2017-09-16T07:26:45.969Z,-4.11
2017-09-16T07:27:34.989Z,-4.11
2017-09-16T07:28:35.007Z,-4.11
2017-09-16T07:29:29.967Z,-4.11
2017-09-16T07:30:23.997Z,-4.11
2017-09-16T07:31:19.041Z,-4.11
2017-09-16T07:32:19.142Z,-4.11
2017-09-16T07:33:08.249Z,-4.11
2017-09-16T07:34:02.364Z,-4.10
2017-09-16T07:34:56.268Z,-4.10
2017-09-16T07:35:51.375Z,-4.10
2017-09-16T07:36:40.433Z,-4.10
2017-09-16T07:37:34.338Z,-4.10
2017-09-16T07:38:34.635Z,-4.10
2017-09-16T07:39:28.724Z,-4.10
2017-09-16T07:40:23.489Z,-4.10
2017-09-16T07:41:23.548Z,-4.10
2017-09-16T07:42:12.885Z,-4.10
2017-09-16T07:43:18.614Z,-4.10
2017-09-16T07:44:07.817Z,-4.10
2017-09-16T07:45:01.716Z,-4.10
2017-09-16T07:46:01.749Z,-4.10
2017-09-16T07:46:56.893Z,-4.10
2017-09-16T07:47:50.852Z,-4.09
2017-09-16T07:48:45.920Z,-4.10
2017-09-16T07:49:39.960Z,-4.09
2017-09-16T07:50:33.998Z,-4.09
2017-09-16T07:51:29.059Z,-4.08
2017-09-16T07:52:29.160Z,-4.08
2017-09-16T07:53:24.226Z,-4.08
2017-09-16T07:54:13.236Z,-4.08
2017-09-16T07:55:14.463Z,-4.08
2017-09-16T07:56:02.405Z,-4.08
2017-09-16T07:56:50.528Z,-4.09
2017-09-16T07:57:45.865Z,-4.09
2017-09-16T07:58:40.658Z,-4.08
2017-09-16T07:59:34.733Z,-4.09
2017-09-16T08:00:28.843Z,-4.10
2017-09-16T08:01:23.815Z,-4.11
2017-09-16T08:02:17.815Z,-4.11
2017-09-16T08:03:06.986Z,-4.11
2017-09-16T08:04:00.993Z,-4.12
2017-09-16T08:04:56.053Z,-4.12
2017-09-16T08:05:50.098Z,-4.12
2017-09-16T08:06:44.157Z,-4.12
2017-09-16T08:07:38.208Z,-4.12
2017-09-16T08:08:32.312Z,-4.12
2017-09-16T08:09:33.295Z,-4.12
2017-09-16T08:10:33.365Z,-4.12
2017-09-16T08:11:33.338Z,-4.12
2017-09-16T08:12:33.555Z,-4.11
2017-09-16T08:13:22.509Z,-4.11
2017-09-16T08:14:22.571Z,-4.11
2017-09-16T08:15:22.435Z,-4.11
2017-09-16T08:16:16.671Z,-4.11
2017-09-16T08:17:16.435Z,-4.11
2017-09-16T08:18:10.667Z,-4.11
2017-09-16T08:19:10.519Z,-4.11
2017-09-16T08:20:04.759Z,-4.10
2017-09-16T08:20:59.853Z,-4.11
2017-09-16T08:21:54.659Z,-4.10
2017-09-16T08:22:49.800Z,-4.11
2017-09-16T08:23:45.147Z,-4.10
2017-09-16T08:24:38.783Z,-4.09
2017-09-16T08:25:33.932Z,-4.09
2017-09-16T08:26:22.885Z,-4.07
2017-09-16T08:27:17.098Z,-4.06
2017-09-16T08:28:05.200Z,-4.06
2017-09-16T08:28:59.464Z,-4.06
2017-09-16T08:29:53.406Z,-4.06
2017-09-16T08:30:48.502Z,-4.06
2017-09-16T08:31:43.540Z,-4.06
2017-09-16T08:32:37.645Z,-4.06
2017-09-16T08:33:31.600Z,-4.06
2017-09-16T08:34:32.708Z,-4.07
2017-09-16T08:35:32.791Z,-4.07
2017-09-16T08:36:27.985Z,-4.07
2017-09-16T08:37:22.728Z,-4.08
2017-09-16T08:38:11.958Z,-4.08
2017-09-16T08:39:11.675Z,-4.08
2017-09-16T08:40:00.817Z,-4.08
2017-09-16T08:40:56.104Z,-4.09
2017-09-16T08:41:56.179Z,-4.08
2017-09-16T08:42:51.236Z,-4.07
2017-09-16T08:43:45.236Z,-4.07
2017-09-16T08:44:40.200Z,-4.07
2017-09-16T08:45:34.266Z,-4.07
2017-09-16T08:46:28.422Z,-4.07
2017-09-16T08:47:22.427Z,-4.07
2017-09-16T08:48:16.418Z,-4.07
2017-09-16T08:49:10.549Z,-4.07
2017-09-16T08:49:59.352Z,-4.07
2017-09-16T08:50:53.585Z,-4.07
2017-09-16T08:51:47.522Z,-4.08
2017-09-16T08:52:41.791Z,-4.08
2017-09-16T08:53:35.673Z,-4.09
2017-09-16T08:54:24.808Z,-4.09
2017-09-16T08:55:18.842Z,-4.09
2017-09-16T08:56:13.716Z,-4.09
2017-09-16T08:57:02.928Z,-4.10
2017-09-16T08:57:57.114Z,-4.10
2017-09-16T08:58:57.192Z,-4.10
2017-09-16T08:59:50.840Z,-4.10
2017-09-16T09:00:51.918Z,-4.09
2017-09-16T09:01:46.325Z,-4.09
2017-09-16T09:02:35.010Z,-4.10
2017-09-16T09:03:24.200Z,-4.10
2017-09-16T09:04:19.088Z,-4.10
2017-09-16T09:05:19.203Z,-4.11
2017-09-16T09:06:14.517Z,-4.11
2017-09-16T09:07:08.478Z,-4.11
2017-09-16T09:08:02.769Z,-4.12
2017-09-16T09:08:57.606Z,-4.12
2017-09-16T09:09:51.743Z,-4.11
2017-09-16T09:10:46.758Z,-4.12
2017-09-16T09:11:46.668Z,-4.12
2017-09-16T09:12:41.525Z,-4.12
2017-09-16T09:13:29.828Z,-4.12
2017-09-16T09:14:29.700Z,-4.12
2017-09-16T09:15:25.013Z,-4.13
2017-09-16T09:16:18.758Z,-4.12
2017-09-16T09:17:06.827Z,-4.12
2017-09-16T09:18:00.974Z,-4.12
2017-09-16T09:18:56.409Z,-4.11
2017-09-16T09:19:56.037Z,-4.12
2017-09-16T09:20:44.983Z,-4.11
2017-09-16T09:21:34.065Z,-4.12
2017-09-16T09:22:23.350Z,-4.12
2017-09-16T09:23:17.155Z,-4.12
2017-09-16T09:24:12.169Z,-4.12
2017-09-16T09:25:07.361Z,-4.12
2017-09-16T09:26:07.253Z,-4.13
2017-09-16T09:27:02.490Z,-4.13
2017-09-16T09:27:51.720Z,-4.13
2017-09-16T09:28:51.571Z,-4.13
2017-09-16T09:29:46.797Z,-4.13
2017-09-16T09:30:35.549Z,-4.13
2017-09-16T09:31:30.866Z,-4.13
2017-09-16T09:32:19.871Z,-4.13
2017-09-16T09:33:08.893Z,-4.12
2017-09-16T09:33:58.082Z,-4.12
2017-09-16T09:34:51.774Z,-4.11
2017-09-16T09:35:47.089Z,-4.11
2017-09-16T09:36:41.137Z,-4.11
2017-09-16T09:37:35.221Z,-4.11
2017-09-16T09:38:35.133Z,-4.10
2017-09-16T09:39:24.256Z,-4.11
2017-09-16T09:40:12.087Z,-4.11
2017-09-16T09:41:07.397Z,-4.11
2017-09-16T09:42:01.414Z,-4.11
2017-09-16T09:43:01.472Z,-4.10
2017-09-16T09:43:55.495Z,-4.09
2017-09-16T09:44:50.549Z,-4.09
2017-09-16T09:45:45.665Z,-4.10
2017-09-16T09:46:45.640Z,-4.09
2017-09-16T09:47:40.589Z,-4.09
2017-09-16T09:48:40.739Z,-4.10
2017-09-16T09:49:35.672Z,-4.10
2017-09-16T09:50:30.537Z,-4.10
2017-09-16T09:51:24.571Z,-4.11
2017-09-16T09:52:18.720Z,-4.11
2017-09-16T09:53:07.986Z,-4.11
2017-09-16T09:53:57.294Z,-4.10
2017-09-16T09:54:50.781Z,-4.11
2017-09-16T09:55:44.759Z,-4.11
2017-09-16T09:56:39.933Z,-4.11
2017-09-16T09:57:39.950Z,-4.10
2017-09-16T09:58:35.000Z,-4.10
2017-09-16T09:59:23.235Z,-4.10
2017-09-16T10:00:17.299Z,-4.11
2017-09-16T10:01:12.361Z,-4.11
2017-09-16T10:02:12.511Z,-4.12
2017-09-16T10:03:01.281Z,-4.12
2017-09-16T10:03:55.663Z,-4.11
2017-09-16T10:04:55.579Z,-4.12
2017-09-16T10:05:49.603Z,-4.11
2017-09-16T10:06:44.618Z,-4.12
2017-09-16T10:07:38.694Z,-4.12
2017-09-16T10:08:27.838Z,-4.12
2017-09-16T10:09:21.803Z,-4.12
2017-09-16T10:10:10.923Z,-4.12
2017-09-16T10:11:04.858Z,-4.10
2017-09-16T10:12:04.941Z,-4.10
2017-09-16T10:12:53.973Z,-4.09
2017-09-16T10:13:47.880Z,-4.09
2017-09-16T10:14:43.071Z,-4.09
2017-09-16T10:15:36.868Z,-4.09
2017-09-16T10:16:25.904Z,-4.09
2017-09-16T10:17:20.965Z,-4.09
2017-09-16T10:18:21.026Z,-4.09
2017-09-16T10:19:10.332Z,-4.09
2017-09-16T10:20:10.087Z,-4.09
2017-09-16T10:21:10.204Z,-4.09
2017-09-16T10:22:04.382Z,-4.08
2017-09-16T10:22:59.425Z,-4.08
2017-09-16T10:23:54.714Z,-4.08
2017-09-16T10:24:43.591Z,-4.07
2017-09-16T10:25:43.715Z,-4.06
2017-09-16T10:26:38.696Z,-4.05
2017-09-16T10:27:32.608Z,-4.05
2017-09-16T10:28:26.795Z,-4.04
2017-09-16T10:29:15.971Z,9.42
2017-09-16T10:30:16.080Z,15.96
2017-09-16T10:31:05.046Z,-4.05
2017-09-16T10:32:05.122Z,14.51
2017-09-16T10:33:05.083Z,0.27
2017-09-16T10:33:59.262Z,-2.46
2017-09-16T10:34:47.201Z,17.94
2017-09-16T10:35:42.251Z,10.06
2017-09-16T10:36:43.225Z,8.29
2017-09-16T10:37:37.311Z,4.59
2017-09-16T10:38:32.308Z,1.80
2017-09-16T10:39:26.450Z,-4.06
2017-09-16T10:40:15.535Z,15.83
2017-09-16T10:41:10.543Z,12.33
2017-09-16T10:42:04.643Z,21.98
2017-09-16T10:42:58.701Z,35.11
2017-09-16T10:43:52.649Z,35.16
2017-09-16T10:44:47.762Z,20.45
2017-09-16T10:45:42.820Z,28.83
2017-09-16T10:46:36.818Z,19.08
2017-09-16T10:47:25.880Z,-0.80
2017-09-16T10:48:20.643Z,8.67
2017-09-16T10:49:16.024Z,-3.42
2017-09-16T10:50:16.070Z,7.38
2017-09-16T10:51:10.097Z,1.18
2017-09-16T10:52:09.885Z,1.10
2017-09-16T10:53:04.221Z,22.36
2017-09-16T10:54:03.960Z,6.83
2017-09-16T10:54:57.978Z,11.31
2017-09-16T10:55:52.366Z,9.86
2017-09-16T10:56:41.448Z,-4.08
2017-09-16T10:57:36.547Z,-4.08
2017-09-16T10:58:30.567Z,-4.08
2017-09-16T10:59:25.592Z,-4.08
2017-09-16T11:00:25.668Z,-4.08
2017-09-16T11:01:13.754Z,-4.08
2017-09-16T11:02:07.637Z,-4.07
2017-09-16T11:03:01.877Z,-4.07
2017-09-16T11:03:50.719Z,-4.07
2017-09-16T11:04:39.901Z,-4.07
2017-09-16T11:05:29.007Z,-2.00
2017-09-16T11:06:23.027Z,-2.23
2017-09-16T11:07:18.143Z,-2.39
2017-09-16T11:08:13.104Z,2.97
2017-09-16T11:09:07.181Z,22.14
2017-09-16T11:10:07.213Z,22.90
2017-09-16T11:11:02.282Z,26.14
2017-09-16T11:11:56.338Z,23.01
2017-09-16T11:12:56.367Z,29.54
2017-09-16T11:13:45.476Z,36.66
2017-09-16T11:14:33.188Z,38.58
2017-09-16T11:15:33.275Z,37.38
2017-09-16T11:16:27.318Z,21.93
2017-09-16T11:17:27.258Z,2.58
2017-09-16T11:18:21.705Z,23.70
2017-09-16T11:19:16.678Z,9.49
2017-09-16T11:20:11.898Z,22.00
2017-09-16T11:20:59.504Z,8.64
2017-09-16T11:21:53.908Z,5.88
2017-09-16T11:22:48.913Z,-4.08
2017-09-16T11:23:48.931Z,-0.82
2017-09-16T11:24:44.026Z,-4.07
2017-09-16T11:25:37.724Z,-4.07
2017-09-16T11:26:32.004Z,-1.37
2017-09-16T11:27:33.043Z,-4.07
2017-09-16T11:28:21.097Z,4.41
2017-09-16T11:29:10.271Z,-4.08
2017-09-16T11:30:04.419Z,-4.08
2017-09-16T11:31:04.404Z,3.63
2017-09-16T11:31:58.425Z,-4.08
2017-09-16T11:32:53.417Z,-4.08
2017-09-16T11:33:42.556Z,-4.08
2017-09-16T11:34:36.517Z,-4.08
2017-09-16T11:35:31.770Z,-4.08
2017-09-16T11:36:25.690Z,-4.09
2017-09-16T11:37:19.747Z,-4.09
2017-09-16T11:38:13.810Z,-4.09
2017-09-16T11:39:01.891Z,-4.09
2017-09-16T11:39:49.862Z,-4.10
2017-09-16T11:40:39.267Z,-4.10
2017-09-16T11:41:33.934Z,-4.10
2017-09-16T11:42:29.051Z,-4.10
2017-09-16T11:43:30.069Z,-4.10
2017-09-16T11:44:30.119Z,-4.11
2017-09-16T11:45:25.131Z,-4.11
2017-09-16T11:46:14.277Z,-4.11
2017-09-16T11:47:20.261Z,-4.11